Portada
METAR-TAF:

METAR-TAF

Aeroports :

Châteaudun, França

latitud: 48-03N, longitud: 001-23E, altitud: 134 m

Observació

L'informe es va fer fa 37 minuts, a les 16:30 UTC
Vent 6 kt del Sud
Temperatura 10°C
Humitat 93%
Pressió 1019 hPa
Visibilitat 10 km o més

METAR: LFOC 071630Z AUTO 19006KT 9999 ////// 10/09 Q1019

Hora: 18:07 (17:07 UTC)

Pronòstic

L'informe es va fer fa 27 hores i 7 minuts, a les 14:00 UTC
Pronòstic vàlid del 06 a les 15 UTC al 07 a les 15 UTC
Vent 20 kt del Sud/Sud-Oest amb ràfegues de 30 kt
Visibilitat: 3000 m
Cel cobert a una alçada de 400 ft
pluja, plugim, boirina
Evolucionant progressivament
l' 06 a les 23 UTC al 07 a les 01 UTC
Vent 12 kt del Sud-Oest
Probabilitat 30% :
Temporalment
l' 07 a les 04 UTC al 07 a les 09 UTC
Visibilitat: 0900 m
boira

TAF: LFOC 061400Z 0615/0715 21020G30KT 3000 -RADZ BR OVC004 BECMG 0623/0701 22012KT PROB30 TEMPO 0704/0709 0900 FG VV///

Observacions i pronòstics meteorològics de més de 4000 aeroports (METAR i TAF).

Les estacions disponibles són els punts grocs i vermells al mapa.

Posi el ratolí al punt desitjat per veure el nom de l'estació.

Feu clic per veure les observacions i els pronòstics meteorològics.

Per canviar el mapa: feu clic els botons verds amb una creu de color negre per apropar; al botó verd amb un guió per allunyar la imatge; o en les fletxes verdes per a mapes adjacents.


METAR-TAF: